Terminal Aerodrome Forecast
Issued by NWS Wilmington, OH

Current Version | Previous Version | Graphics & Text | Print | Product List | Glossary On
Versions: 1 2 3 4 5 6 7 8 9 10 11 12 13
000
FTUS41 KILN 300500
TAFCMH
TAF
KCMH 300530Z 3006/3106 15006KT P6SM BKN110
     FM300800 16005KT P6SM SCT250
     FM301600 21010G15KT P6SM SCT050 BKN200
     FM302200 21014G20KT P6SM VCTS SCT040CB BKN060 OVC120
     FM310100 19008KT P6SM SCT050 OVC100=

USA.gov is the U.S. government's official web portal to all federal, state and local government web resources and services.